createdAt,value
2022-08-22T00:01:53.674Z,15.80
2022-08-22T00:04:36.967Z,15.80
2022-08-22T00:08:00.816Z,15.80
2022-08-22T00:10:34.642Z,15.90
2022-08-22T00:13:16.713Z,15.90
2022-08-22T00:15:51.881Z,15.90
2022-08-22T00:18:55.330Z,15.80
2022-08-22T00:21:31.898Z,15.80
2022-08-22T00:24:16.226Z,15.70
2022-08-22T00:26:57.162Z,15.70
2022-08-22T00:29:52.875Z,15.60
2022-08-22T00:32:46.996Z,15.60
2022-08-22T00:35:42.942Z,15.50
2022-08-22T00:38:19.415Z,15.50
2022-08-22T00:41:25.458Z,15.40
2022-08-22T00:44:30.784Z,15.30
2022-08-22T00:47:19.913Z,15.40
2022-08-22T00:50:15.216Z,15.30
2022-08-22T00:53:02.923Z,15.30
2022-08-22T00:55:37.898Z,15.30
2022-08-22T00:58:31.078Z,15.30
2022-08-22T05:34:39.824Z,14.60
2022-08-22T05:37:14.064Z,14.60
2022-08-22T05:39:47.190Z,14.70
2022-08-22T05:42:29.920Z,14.70
2022-08-22T05:44:57.182Z,14.90
2022-08-22T05:47:34.891Z,14.90
2022-08-22T05:50:11.002Z,15.00
2022-08-22T05:52:50.164Z,15.10
2022-08-22T05:55:47.718Z,15.20
2022-08-22T05:58:39.667Z,15.30
2022-08-22T06:01:25.205Z,15.40
2022-08-22T06:04:31.406Z,15.50
2022-08-22T06:07:16.820Z,15.60
2022-08-22T06:09:46.654Z,15.80
2022-08-22T06:12:22.233Z,15.90
2022-08-22T06:15:29.463Z,16.00
2022-08-22T06:18:03.330Z,16.20
2022-08-22T06:20:49.459Z,16.30
2022-08-22T06:23:22.879Z,16.40
2022-08-22T06:25:51.467Z,16.50
2022-08-22T06:28:23.567Z,16.60
2022-08-22T06:30:53.940Z,16.70
2022-08-22T06:33:29.231Z,16.80
2022-08-22T06:36:23.259Z,16.90
2022-08-22T06:39:06.135Z,17.00
2022-08-22T06:41:36.155Z,17.20
2022-08-22T06:44:05.566Z,17.30
2022-08-22T06:49:01.954Z,17.50
2022-08-22T06:51:29.474Z,17.60
2022-08-22T06:54:03.542Z,17.70
2022-08-22T06:56:38.877Z,17.80
2022-08-22T06:59:14.816Z,18.00
2022-08-22T07:02:01.012Z,18.10
2022-08-22T07:04:28.689Z,18.30
2022-08-22T07:06:58.675Z,18.30
2022-08-22T07:09:35.473Z,18.60
2022-08-22T07:12:10.881Z,18.70
2022-08-22T07:14:49.401Z,18.80
2022-08-22T08:01:45.345Z,21.70
2022-08-22T08:09:15.520Z,21.70
2022-08-22T08:11:44.817Z,21.70
2022-08-22T08:14:14.366Z,21.80
2022-08-22T08:16:50.767Z,21.90
2022-08-22T08:19:18.882Z,22.00
2022-08-22T08:21:53.516Z,22.20
2022-08-22T08:24:31.566Z,22.10
2022-08-22T08:27:33.053Z,22.20
2022-08-22T08:30:05.867Z,22.40
2022-08-22T08:32:37.379Z,22.60
2022-08-22T08:35:23.030Z,22.70
2022-08-22T08:38:00.132Z,22.80
2022-08-22T08:40:35.441Z,22.90
2022-08-22T08:43:31.339Z,22.80
2022-08-22T08:46:10.668Z,22.70
2022-08-22T08:49:17.420Z,22.80
2022-08-22T08:51:53.147Z,22.90
2022-08-22T08:54:43.211Z,23.10
2022-08-22T08:57:33.822Z,23.10
2022-08-22T09:00:08.033Z,23.20
2022-08-22T09:02:46.703Z,23.40
2022-08-22T09:05:29.179Z,23.60
2022-08-22T09:08:24.625Z,23.50
2022-08-22T09:11:00.291Z,23.50
2022-08-22T09:13:41.910Z,23.70
2022-08-22T09:16:37.459Z,23.70
2022-08-22T09:19:28.944Z,23.80
2022-08-22T09:22:22.236Z,23.90
2022-08-22T09:25:13.632Z,24.00
2022-08-22T09:28:22.138Z,24.10
2022-08-22T09:31:47.481Z,24.20
2022-08-22T09:34:29.179Z,24.30
2022-08-22T09:37:19.991Z,24.50
2022-08-22T09:40:05.839Z,24.80
2022-08-22T09:43:00.189Z,24.70
2022-08-22T09:45:36.513Z,24.80
2022-08-22T09:48:32.734Z,25.10
2022-08-22T09:51:31.988Z,25.20
2022-08-22T09:54:18.798Z,25.30
2022-08-22T09:56:45.467Z,25.30
2022-08-22T09:59:24.471Z,25.30
2022-08-22T10:02:01.187Z,25.50
2022-08-22T10:04:42.966Z,25.20
2022-08-22T10:07:46.709Z,25.20
2022-08-22T10:10:41.315Z,25.40
2022-08-22T10:13:35.886Z,25.70
2022-08-22T10:16:14.931Z,25.80
2022-08-22T10:18:57.971Z,26.00
2022-08-22T10:22:08.263Z,25.80
2022-08-22T10:25:05.769Z,25.90
2022-08-22T10:27:59.807Z,25.50
2022-08-22T10:30:32.489Z,25.00
2022-08-22T10:33:38.367Z,24.80
2022-08-22T10:36:31.147Z,24.70
2022-08-22T10:39:01.356Z,24.50
2022-08-22T10:42:16.771Z,24.30
2022-08-22T10:45:04.026Z,24.40
2022-08-22T10:47:50.847Z,24.80
2022-08-22T10:50:49.245Z,25.50
2022-08-22T10:53:31.004Z,26.20
2022-08-22T10:56:12.780Z,26.70
2022-08-22T10:59:14.381Z,26.80
2022-08-22T11:01:54.462Z,25.80
2022-08-22T11:05:08.059Z,25.70
2022-08-22T11:08:00.862Z,25.40
2022-08-22T11:11:05.470Z,25.10
2022-08-22T11:13:59.740Z,25.00
2022-08-22T11:16:46.769Z,25.00
2022-08-22T11:19:24.326Z,25.00
2022-08-22T11:21:58.325Z,25.00
2022-08-22T11:24:35.770Z,25.00
2022-08-22T11:27:34.507Z,25.20
2022-08-22T11:30:30.074Z,25.40
2022-08-22T11:33:46.185Z,25.40
2022-08-22T11:36:36.176Z,25.50
2022-08-22T11:39:28.012Z,25.70
2022-08-22T11:42:11.492Z,25.90
2022-08-22T11:44:50.400Z,26.60
2022-08-22T11:47:26.343Z,27.30
2022-08-22T11:50:01.228Z,27.40
2022-08-22T11:52:42.883Z,27.20
2022-08-22T11:55:32.532Z,27.00
2022-08-22T11:58:31.749Z,26.90
2022-08-22T12:01:14.846Z,27.20
2022-08-22T12:04:10.708Z,27.20
2022-08-22T12:06:56.090Z,27.10
2022-08-22T12:09:43.169Z,26.80
2022-08-22T12:12:29.521Z,26.60
2022-08-22T12:15:40.469Z,26.10
2022-08-22T12:18:26.173Z,26.10
2022-08-22T12:21:07.562Z,26.50
2022-08-22T12:23:54.819Z,27.50
2022-08-22T12:26:48.117Z,28.40
2022-08-22T12:32:17.390Z,29.50
2022-08-22T12:35:13.454Z,29.70
2022-08-22T12:38:27.930Z,29.60
2022-08-22T12:41:09.135Z,28.90
2022-08-22T12:43:59.594Z,29.50
2022-08-22T12:49:17.895Z,28.00
2022-08-22T12:52:15.828Z,27.50
2022-08-22T12:55:00.772Z,27.50
2022-08-22T12:57:50.316Z,27.30
2022-08-22T13:00:30.644Z,27.20
2022-08-22T13:03:02.281Z,27.60
2022-08-22T13:05:30.693Z,27.60
2022-08-22T13:08:10.010Z,27.10
2022-08-22T13:10:47.646Z,26.90
2022-08-22T13:13:37.091Z,26.80
2022-08-22T13:16:11.735Z,26.80
2022-08-22T13:18:54.097Z,27.30
2022-08-22T13:21:26.781Z,27.90
2022-08-22T13:24:05.061Z,28.70
2022-08-22T13:26:45.785Z,29.10
2022-08-22T13:32:01.396Z,30.20
2022-08-22T13:34:40.314Z,30.60
2022-08-22T13:37:13.349Z,30.60
2022-08-22T13:39:45.789Z,30.90
2022-08-22T13:42:31.001Z,30.30
2022-08-22T13:45:03.105Z,28.40
2022-08-22T13:47:35.614Z,29.10
2022-08-22T13:50:13.979Z,29.50
2022-08-22T13:53:07.034Z,29.40
2022-08-22T13:55:50.782Z,29.30
2022-08-22T13:58:32.757Z,29.30
2022-08-22T14:01:25.304Z,29.60
2022-08-22T14:04:01.541Z,29.30
2022-08-22T14:06:41.419Z,29.80
2022-08-22T14:09:31.970Z,30.30
2022-08-22T14:12:15.979Z,30.70
2022-08-22T14:14:47.106Z,31.10
2022-08-22T14:17:18.386Z,31.00
2022-08-22T14:19:58.536Z,30.70
2022-08-22T14:22:32.247Z,30.70
2022-08-22T14:25:08.546Z,30.10
2022-08-22T14:27:55.991Z,29.80
2022-08-22T14:30:28.224Z,29.40
2022-08-22T14:33:08.566Z,29.60
2022-08-22T14:35:43.841Z,30.00
2022-08-22T14:38:35.504Z,30.30
2022-08-22T14:41:52.878Z,29.60
2022-08-22T14:44:25.110Z,28.40
2022-08-22T14:46:56.413Z,28.10
2022-08-22T14:49:48.591Z,27.80
2022-08-22T14:52:38.417Z,27.80
2022-08-22T14:55:19.139Z,27.70
2022-08-22T14:58:03.345Z,27.50
2022-08-22T15:00:37.949Z,27.90
2022-08-22T15:03:20.553Z,28.50
2022-08-22T15:06:06.697Z,28.80
2022-08-22T15:08:38.459Z,28.70
2022-08-22T15:11:27.159Z,28.90
2022-08-22T15:14:08.387Z,28.30
2022-08-22T15:16:46.270Z,27.80
2022-08-22T15:19:27.354Z,28.30
2022-08-22T15:22:25.927Z,28.90
2022-08-22T15:25:15.625Z,28.70
2022-08-22T15:28:05.204Z,27.80
2022-08-22T15:30:49.872Z,27.80
2022-08-22T15:33:27.789Z,27.60
2022-08-22T15:36:07.540Z,27.40
2022-08-22T15:38:46.904Z,27.30
2022-08-22T15:41:36.361Z,27.30
2022-08-22T15:44:07.037Z,27.40
2022-08-22T15:46:41.786Z,27.50
2022-08-22T15:49:11.305Z,27.90
2022-08-22T15:52:00.592Z,28.40
2022-08-22T15:54:55.035Z,28.70
2022-08-22T15:57:41.021Z,29.00
2022-08-22T16:00:45.078Z,28.40
2022-08-22T16:03:25.813Z,27.90
2022-08-22T16:05:56.750Z,27.90
2022-08-22T16:08:48.365Z,27.40
2022-08-22T16:11:33.778Z,27.20
2022-08-22T16:14:35.598Z,27.60
2022-08-22T16:17:26.597Z,28.50
2022-08-22T16:20:09.981Z,28.30
2022-08-22T16:25:46.596Z,28.80
2022-08-22T16:28:54.271Z,27.90
2022-08-22T16:31:35.468Z,28.60
2022-08-22T16:34:17.179Z,28.80
2022-08-22T16:37:02.794Z,28.30
2022-08-22T16:39:40.146Z,27.20
2022-08-22T17:39:57.750Z,24.50
2022-08-22T17:42:43.977Z,24.30
2022-08-22T17:45:35.645Z,24.20
2022-08-22T17:48:25.879Z,24.00
2022-08-22T17:51:02.827Z,23.80
2022-08-22T17:53:52.533Z,23.60
2022-08-22T17:56:45.727Z,23.50
2022-08-22T17:59:19.059Z,23.40
2022-08-22T18:01:57.555Z,23.50
2022-08-22T18:04:34.018Z,23.60
2022-08-22T18:07:15.967Z,23.50
2022-08-22T18:09:51.763Z,23.40
2022-08-22T18:12:45.754Z,23.30
2022-08-22T18:15:26.517Z,23.30
2022-08-22T18:17:59.846Z,23.30
2022-08-22T18:20:50.126Z,23.30
2022-08-22T18:23:39.049Z,23.30
2022-08-22T18:26:29.120Z,23.20
2022-08-22T18:29:38.425Z,23.00
2022-08-22T18:32:36.957Z,22.80
2022-08-22T18:35:07.872Z,22.70
2022-08-22T18:37:35.421Z,22.40
2022-08-22T18:40:13.734Z,22.20
2022-08-22T18:42:54.594Z,22.00
2022-08-22T18:45:45.789Z,21.80
2022-08-22T18:48:54.250Z,21.60
2022-08-22T18:51:30.484Z,21.30
2022-08-22T18:54:11.080Z,21.20
2022-08-22T18:57:06.679Z,21.00
2022-08-22T18:59:46.547Z,20.90
2022-08-22T19:02:35.021Z,20.90
2022-08-22T19:05:10.674Z,20.90
2022-08-22T19:07:55.395Z,20.90
2022-08-22T19:10:32.086Z,20.80
2022-08-22T19:13:46.947Z,20.80
2022-08-22T19:18:52.322Z,20.50
2022-08-22T19:21:52.118Z,20.40
2022-08-22T19:24:27.564Z,20.40
2022-08-22T19:27:18.921Z,20.30
2022-08-22T19:29:45.464Z,20.20
2022-08-22T19:32:43.911Z,20.10
2022-08-22T19:35:19.629Z,20.20
2022-08-22T19:38:04.633Z,20.20
2022-08-22T19:40:48.837Z,20.30
2022-08-22T19:43:35.036Z,20.20
2022-08-22T19:46:09.177Z,20.10
2022-08-22T19:48:48.434Z,20.10
2022-08-22T19:51:21.118Z,20.10
2022-08-22T19:54:06.540Z,20.10
2022-08-22T19:56:51.773Z,20.10
2022-08-22T19:59:50.741Z,20.10
2022-08-22T20:02:26.585Z,20.10
2022-08-22T20:05:27.613Z,20.00
2022-08-22T20:08:02.619Z,19.90
2022-08-22T20:11:04.091Z,20.00
2022-08-22T20:13:34.043Z,20.10
2022-08-22T20:16:07.049Z,20.10
2022-08-22T20:19:05.525Z,20.10
2022-08-22T20:21:41.279Z,20.10
2022-08-22T20:24:12.687Z,19.90
2022-08-22T20:26:57.586Z,19.80
2022-08-22T20:29:36.857Z,19.80
2022-08-22T20:32:06.082Z,19.80
2022-08-22T20:34:37.087Z,19.60
2022-08-22T20:37:27.010Z,19.40
2022-08-22T20:40:05.732Z,19.40
2022-08-22T20:42:36.070Z,19.50
2022-08-22T20:45:12.021Z,19.60
2022-08-22T20:47:41.265Z,19.60
2022-08-22T20:50:11.941Z,19.50
2022-08-22T20:52:51.960Z,19.60
2022-08-22T20:55:31.619Z,19.60
2022-08-22T20:58:25.382Z,19.50
2022-08-22T21:00:56.906Z,19.40
2022-08-22T21:03:36.787Z,19.30
2022-08-22T21:06:29.201Z,19.30
2022-08-22T21:09:31.439Z,19.10
2022-08-22T21:12:01.000Z,19.10
2022-08-22T21:14:32.918Z,19.20
2022-08-22T21:17:17.117Z,19.30
2022-08-22T21:19:43.717Z,19.30
2022-08-22T21:22:15.906Z,19.40
2022-08-22T21:24:42.649Z,19.30
2022-08-22T21:27:14.362Z,19.30
2022-08-22T21:29:46.272Z,19.40
2022-08-22T21:32:34.300Z,19.50
2022-08-22T21:35:02.516Z,19.40
2022-08-22T21:37:39.760Z,19.30
2022-08-22T21:40:17.595Z,19.30
2022-08-22T21:42:58.392Z,19.30
2022-08-22T21:45:33.594Z,19.30
2022-08-22T21:48:01.080Z,19.30
2022-08-22T21:50:34.534Z,19.20
2022-08-22T21:53:10.511Z,19.20
2022-08-22T21:55:44.377Z,19.10
2022-08-22T21:58:36.124Z,19.10
2022-08-22T22:01:28.621Z,19.10
2022-08-22T22:03:55.512Z,19.10
2022-08-22T22:06:22.106Z,19.10
2022-08-22T22:08:48.973Z,19.20
2022-08-22T22:11:17.005Z,19.10
2022-08-22T22:13:44.449Z,19.00
2022-08-22T22:16:14.327Z,18.90
2022-08-22T22:18:41.315Z,18.80
2022-08-22T22:21:08.652Z,18.80
2022-08-22T22:23:35.520Z,18.80
2022-08-22T22:26:05.372Z,18.80
2022-08-22T22:28:36.220Z,18.90
2022-08-22T22:31:03.571Z,18.80
2022-08-22T22:33:34.107Z,18.80
2022-08-22T22:36:06.818Z,18.70
2022-08-22T22:38:33.794Z,18.70
2022-08-22T22:41:00.587Z,18.70
2022-08-22T22:43:27.603Z,18.50
2022-08-22T22:45:54.202Z,18.40
2022-08-22T22:48:24.082Z,18.30
2022-08-22T22:50:54.825Z,18.10
2022-08-22T22:53:33.755Z,17.90
2022-08-22T22:56:06.762Z,17.80
2022-08-22T22:58:35.380Z,17.70
2022-08-22T23:01:23.099Z,17.60
2022-08-22T23:03:55.389Z,17.50
2022-08-22T23:06:24.788Z,17.40
2022-08-22T23:08:51.771Z,17.30
2022-08-22T23:11:22.064Z,17.30
2022-08-22T23:13:49.341Z,17.30
2022-08-22T23:16:20.038Z,17.30
2022-08-22T23:18:47.168Z,17.40
2022-08-22T23:21:24.045Z,17.50
2022-08-22T23:23:51.369Z,17.50
2022-08-22T23:26:18.169Z,17.40
2022-08-22T23:28:44.900Z,17.40
2022-08-22T23:31:19.421Z,17.30
2022-08-22T23:33:46.675Z,17.20
2022-08-22T23:36:16.348Z,17.10
2022-08-22T23:38:43.763Z,17.00
2022-08-22T23:41:12.396Z,17.00
2022-08-22T23:43:44.481Z,17.20
2022-08-22T23:46:12.013Z,17.10
2022-08-22T23:48:38.653Z,17.00
2022-08-22T23:51:05.534Z,17.00
2022-08-22T23:53:33.615Z,16.90
2022-08-22T23:56:19.695Z,16.80
2022-08-22T23:58:48.259Z,16.70
